Aviation Digital Data Service (ADDS)

Output produced by METARs form (0333 UTC 19 August 2019)
found at http://www.aviationweather.gov/metar/data/
 
Forecast for: KPSP (PALM SPRINGS , CA, US)
Text: KPSP 182322Z 1900/1924 VRB04KT P6SM SKC
Forecast period: 0000 to 0100 UTC 19 August 2019
Forecast type: FROM: standard forecast or significant change
Winds: variable direction winds at 5 MPH (4 knots; 2.1 m/s)
Visibility: 6 or more miles 10+ km)
Clouds: clear skies
Weather: no significant weather forecast for this period
Text: FM190100 33012G20KT P6SM SKC
Forecast period: 0100 to 0600 UTC 19 August 2019
Forecast type: FROM: standard forecast or significant change
Winds: from the NNW (330 degrees) at 14 MPH (12 knots; 6.2 m/s)
gusting to 23 MPH (20 knots; 10.3 m/s)
Visibility: 6 or more miles 10+ km)
Clouds: clear skies
Weather: no significant weather forecast for this period
Text: FM190600 VRB04KT P6SM SKC
Forecast period: 0600 UTC 19 August 2019 to 0000 UTC 20 August 2019
Forecast type: FROM: standard forecast or significant change
Winds: variable direction winds at 5 MPH (4 knots; 2.1 m/s)
Visibility: 6 or more miles 10+ km)
Clouds: clear skies
Weather: no significant weather forecast for this period